Time;durP1;ratioP1;P1;durP2;ratioP2;P2;SDS_P1;SDS_P2;PMS_P1;PMS_P2;Temp;Humidity;BMP_temperature;BMP_pressure;BME280_temperature;BME280_humidity;BME280_pressure;Samples;Min_cycle;Max_cycle;Signal;HPM_P1;HPM_P2
2022/10/29 00:05:33;;;;;;;55.45;34.00;;;;;;;9.29;100.00;99796.45;4290331;82;21993;-82
2022/10/29 00:11:36;;;;;;;61.80;36.65;;;;;;;9.18;100.00;99802.19;4278327;82;20984;-82
2022/10/29 00:17:39;;;;;;;61.70;35.03;;;;;;;9.08;100.00;99782.17;4337332;82;21056;-82
2022/10/29 00:23:47;;;;;;;55.63;36.85;;;;;;;9.06;100.00;99776.84;4223487;82;21125;-82
2022/10/29 00:29:48;;;;;;;59.80;35.60;;;;;;;8.95;100.00;99770.27;4069214;84;21024;-83
2022/10/29 00:36:01;;;;;;;43.25;27.17;;;;;;;8.83;100.00;99763.48;4072813;85;21169;-83
2022/10/29 00:42:03;;;;;;;46.77;27.50;;;;;;;8.82;100.00;99760.50;4074631;85;21129;-83
2022/10/29 00:48:06;;;;;;;56.00;32.33;;;;;;;8.85;100.00;99763.35;4130505;85;21058;-83
2022/10/29 00:54:12;;;;;;;57.55;33.58;;;;;;;8.77;100.00;99758.81;4064782;85;21010;-83
2022/10/29 01:00:22;;;;;;;52.88;32.28;;;;;;;8.71;100.00;99761.56;4077030;85;21086;-83
2022/10/29 01:06:23;;;;;;;47.13;29.98;;;;;;;8.69;100.00;99752.91;4079983;85;21075;-83
2022/10/29 01:13:05;;;;;;;50.50;32.13;;;;;;;8.64;100.00;99757.83;4070664;84;21596;-85
2022/10/29 01:19:47;;;;;;;51.75;31.15;;;;;;;8.54;100.00;99759.09;4078776;85;21035;-85
2022/10/29 01:26:27;;;;;;;56.75;31.65;;;;;;;8.46;100.00;99751.81;4128814;82;22014;-84
2022/10/29 01:33:15;;;;;;;53.33;31.15;;;;;;;8.42;100.00;99741.92;4240579;81;21202;-84
2022/10/29 01:39:43;;;;;;;54.70;32.65;;;;;;;8.37;100.00;99741.59;4240734;82;21032;-83
2022/10/29 01:46:00;;;;;;;47.23;28.87;;;;;;;8.28;100.00;99727.28;4245644;82;21113;-82
2022/10/29 01:52:06;;;;;;;52.03;29.25;;;;;;;8.17;100.00;99731.58;4247872;82;21624;-83
2022/10/29 01:58:11;;;;;;;44.70;28.05;;;;;;;8.03;100.00;99722.13;4237107;82;21068;-84
2022/10/29 02:04:39;;;;;;;50.50;28.80;;;;;;;7.98;100.00;99719.87;4273961;82;21009;-82
2022/10/29 02:11:05;;;;;;;43.60;27.10;;;;;;;8.02;100.00;99716.46;4230524;82;20978;-82
2022/10/29 02:17:10;;;;;;;49.98;30.12;;;;;;;8.03;100.00;99714.76;4257871;82;20997;-82
2022/10/29 02:23:13;;;;;;;45.65;27.30;;;;;;;7.83;100.00;99693.27;4244985;82;21679;-83
2022/10/29 02:29:15;;;;;;;50.67;29.80;;;;;;;7.88;100.00;99698.50;4235480;81;21024;-82
2022/10/29 02:35:27;;;;;;;47.80;28.52;;;;;;;7.94;100.00;99694.97;4291796;82;20992;-83
2022/10/29 02:41:29;;;;;;;43.83;27.48;;;;;;;8.04;100.00;99691.80;4167068;82;21049;-83
2022/10/29 02:47:36;;;;;;;50.45;28.60;;;;;;;8.05;100.00;99685.20;4247738;82;21000;-83
2022/10/29 02:53:45;;;;;;;48.63;28.32;;;;;;;8.09;100.00;99699.75;4221018;82;21437;-83
2022/10/29 02:59:57;;;;;;;47.13;28.23;;;;;;;8.06;100.00;99699.08;4221974;82;20997;-83
2022/10/29 03:06:02;;;;;;;46.95;27.65;;;;;;;8.09;100.00;99701.13;4220560;82;21061;-83
2022/10/29 03:12:10;;;;;;;43.10;25.75;;;;;;;8.16;100.00;99700.55;4194999;84;21005;-83
2022/10/29 03:18:12;;;;;;;50.75;25.88;;;;;;;8.10;100.00;99678.16;4224728;82;21016;-83
2022/10/29 03:24:13;;;;;;;42.65;26.87;;;;;;;8.07;100.00;99696.56;4234399;82;22326;-83
2022/10/29 03:36:55;;;;;;;43.65;24.75;;;;;;;8.15;100.00;99677.93;4216843;83;21462;-83
2022/10/29 03:42:59;;;;;;;40.20;25.32;;;;;;;8.19;100.00;99676.09;4174499;83;21034;-83
2022/10/29 03:49:01;;;;;;;34.13;23.50;;;;;;;8.29;100.00;99685.22;4178496;83;21655;-83
2022/10/29 03:55:15;;;;;;;33.98;23.25;;;;;;;8.31;100.00;99680.78;4168448;83;21006;-83
2022/10/29 04:01:41;;;;;;;45.05;24.95;;;;;;;8.39;100.00;99680.67;4103627;84;20991;-83
2022/10/29 04:07:43;;;;;;;42.55;25.85;;;;;;;8.37;100.00;99670.66;4186215;82;21062;-83
2022/10/29 04:13:52;;;;;;;35.48;23.70;;;;;;;8.35;100.00;99663.38;4223918;82;21526;-83
2022/10/29 04:19:53;;;;;;;36.63;24.02;;;;;;;8.41;100.00;99674.88;4205907;82;21097;-85
2022/10/29 04:25:58;;;;;;;42.48;26.62;;;;;;;8.50;100.00;99700.08;4189182;82;21026;-83
2022/10/29 04:32:15;;;;;;;37.78;24.80;;;;;;;8.52;100.00;99699.95;4206382;82;21112;-83
2022/10/29 04:38:30;;;;;;;41.37;25.25;;;;;;;8.47;100.00;99689.27;4181094;82;21502;-83
2022/10/29 04:44:35;;;;;;;39.95;25.50;;;;;;;8.37;100.00;99682.94;4189565;85;21030;-83
2022/10/29 04:50:38;;;;;;;39.13;24.50;;;;;;;8.37;100.00;99682.94;4176267;83;21499;-83
2022/10/29 04:57:00;;;;;;;39.65;23.77;;;;;;;8.39;100.00;99687.49;4189193;82;21487;-83
2022/10/29 05:03:03;;;;;;;37.53;22.40;;;;;;;8.43;100.00;99682.92;4172456;82;21056;-84
2022/10/29 05:09:18;;;;;;;38.50;23.38;;;;;;;8.43;100.00;99697.93;4168405;83;21438;-83
2022/10/29 05:15:37;;;;;;;36.28;21.12;;;;;;;8.48;100.00;99704.52;4295770;83;20970;-83
2022/10/29 05:21:51;;;;;;;39.73;23.83;;;;;;;8.53;100.00;99701.56;4102143;85;21023;-83
2022/10/29 05:28:11;;;;;;;52.80;27.77;;;;;;;8.66;100.00;99701.74;4171266;83;21090;-83
2022/10/29 05:34:15;;;;;;;49.10;24.00;;;;;;;8.75;100.00;99714.70;4291926;82;20997;-83
2022/10/29 05:40:30;;;;;;;35.38;21.25;;;;;;;8.82;100.00;99696.35;4198200;84;21481;-83
2022/10/29 05:46:51;;;;;;;34.95;20.17;;;;;;;8.89;100.00;99666.53;4173307;82;21034;-85
2022/10/29 05:53:03;;;;;;;30.60;18.80;;;;;;;8.98;100.00;99648.06;4193606;82;20998;-85
2022/10/29 05:59:20;;;;;;;31.52;20.77;;;;;;;9.13;100.00;99624.88;4198933;82;21042;-86
2022/10/29 06:05:22;;;;;;;24.63;17.67;;;;;;;9.24;100.00;99675.13;4202836;82;21045;-85
2022/10/29 06:25:08;;;;;;;39.92;23.05;;;;;;;9.35;100.00;99707.62;4088637;85;21390;-84
2022/10/29 06:31:09;;;;;;;31.37;21.00;;;;;;;9.39;100.00;99702.27;4085208;85;21054;-84
2022/10/29 06:37:13;;;;;;;31.23;19.75;;;;;;;9.40;100.00;99688.81;4033989;85;21599;-84
2022/10/29 06:43:14;;;;;;;31.48;18.95;;;;;;;9.47;100.00;99689.79;4068015;85;21502;-83
2022/10/29 06:49:42;;;;;;;36.33;19.92;;;;;;;9.58;100.00;99690.09;4077327;85;21039;-83
2022/10/29 07:02:56;;;;;;;36.63;22.35;;;;;;;9.92;100.00;99711.83;3999458;89;21023;-84
2022/10/29 07:09:23;;;;;;;32.53;20.35;;;;;;;10.11;100.00;99723.69;4064795;85;20999;-84
2022/10/29 07:23:07;;;;;;;27.60;18.52;;;;;;;10.76;100.00;99735.73;4062083;87;20996;-84
2022/10/29 07:29:09;;;;;;;23.90;16.50;;;;;;;11.33;100.00;99753.59;4179757;85;21125;-84
2022/10/29 07:35:10;;;;;;;21.27;13.93;;;;;;;12.02;100.00;99760.23;4095772;83;21031;-84
2022/10/29 07:56:07;;;;;;;18.30;12.95;;;;;;;13.46;100.00;99754.11;4231942;84;21011;-84
2022/10/29 08:09:28;;;;;;;;;;;;;;;13.66;100.00;99766.52;3944060;88;21916;-85
2022/10/29 08:15:34;;;;;;;20.12;11.08;;;;;;;13.55;100.00;99773.05;3867372;90;21047;-84
2022/10/29 08:22:03;;;;;;;18.15;11.25;;;;;;;13.99;100.00;99776.09;3869031;90;21133;-84
2022/10/29 08:28:23;;;;;;;15.95;9.93;;;;;;;14.85;100.00;99772.28;3868375;89;21146;-84
2022/10/29 08:34:27;;;;;;;16.73;10.85;;;;;;;15.71;100.00;99776.45;4057091;83;21159;-84
2022/10/29 08:41:25;;;;;;;13.85;9.23;;;;;;;16.44;100.00;99779.13;4186253;83;21081;-85
2022/10/29 08:47:58;;;;;;;14.58;8.50;;;;;;;16.99;100.00;99779.67;4178380;83;21014;-85
2022/10/29 08:54:31;;;;;;;13.18;8.33;;;;;;;17.53;100.00;99780.31;4165548;83;21019;-85
2022/10/29 09:00:48;;;;;;;10.05;7.08;;;;;;;17.87;100.00;99779.97;4187055;82;21621;-85
2022/10/29 09:07:27;;;;;;;;;;;;;;;18.15;100.00;99772.23;4184573;83;21417;-84
2022/10/29 10:48:36;;;;;;;9.50;4.08;;;;;;;20.67;80.87;99720.34;4189892;83;21085;-83
2022/10/29 10:55:02;;;;;;;9.98;3.90;;;;;;;20.53;80.38;99710.86;4112875;85;21013;-84
2022/10/29 11:08:34;;;;;;;5.50;3.37;;;;;;;21.04;79.06;99697.81;4194742;83;20943;-84
2022/10/29 11:14:55;;;;;;;9.25;4.37;;;;;;;20.85;77.30;99696.37;4197583;84;21535;-84
2022/10/29 11:42:45;;;;;;;10.60;4.45;;;;;;;19.83;76.78;99657.81;4212339;82;21081;-84
2022/10/29 11:49:08;;;;;;;6.92;3.52;;;;;;;19.72;75.89;99658.58;4218692;82;21009;-84
2022/10/29 11:55:35;;;;;;;8.78;4.20;;;;;;;19.52;75.86;99657.09;4216678;82;21882;-85
2022/10/29 12:02:24;;;;;;;10.55;4.70;;;;;;;19.20;75.81;99646.99;4205055;84;20989;-84
2022/10/29 12:08:55;;;;;;;10.48;4.17;;;;;;;19.20;75.81;99646.99;4148797;84;21145;-84
2022/10/29 12:15:37;;;;;;;8.08;4.70;;;;;;;19.10;75.97;99647.94;4155586;85;21073;-84
2022/10/29 12:22:00;;;;;;;10.90;4.67;;;;;;;19.02;76.03;99656.16;4121787;85;21112;-85
2022/10/29 12:36:11;;;;;;;8.75;4.50;;;;;;;18.76;75.74;99654.11;4186585;83;21016;-85
2022/10/29 12:42:23;;;;;;;11.30;3.95;;;;;;;18.79;76.24;99645.55;4271225;83;21021;-84
2022/10/29 12:49:21;;;;;;;13.88;4.87;;;;;;;18.85;75.90;99636.36;4263281;83;21898;-84
2022/10/29 12:55:36;;;;;;;12.30;4.40;;;;;;;18.83;75.78;99627.66;4153803;83;21049;-84
2022/10/29 13:01:44;;;;;;;11.00;5.22;;;;;;;18.81;76.23;99623.12;4062051;88;21046;-84
2022/10/29 13:08:03;;;;;;;15.03;4.85;;;;;;;18.78;75.92;99617.63;4063528;86;21082;-85
2022/10/29 13:22:05;;;;;;;10.08;4.70;;;;;;;18.73;76.06;99609.94;4037149;87;21034;-85
2022/10/29 13:28:49;;;;;;;9.00;4.70;;;;;;;18.76;76.19;99617.25;4062270;85;21073;-85
2022/10/29 13:35:12;;;;;;;12.68;5.33;;;;;;;18.74;76.50;99610.11;3974719;87;21038;-85
2022/10/29 13:55:43;;;;;;;13.60;5.20;;;;;;;18.52;76.26;99603.86;4066572;83;21045;-85
2022/10/29 14:02:03;;;;;;;15.55;6.15;;;;;;;18.42;76.27;99593.08;4165544;83;20991;-84
2022/10/29 14:08:47;;;;;;;11.90;5.22;;;;;;;18.39;76.44;99593.90;4115409;85;21022;-84
2022/10/29 14:15:03;;;;;;;12.50;5.50;;;;;;;18.35;76.15;99597.88;4142255;85;20998;-84
2022/10/29 14:35:06;;;;;;;11.80;6.22;;;;;;;18.07;76.76;99612.79;4152025;83;21549;-85
2022/10/29 14:41:19;;;;;;;14.50;5.55;;;;;;;17.95;76.97;99602.22;4180640;83;21094;-85
2022/10/29 14:54:26;;;;;;;11.18;5.70;;;;;;;17.66;77.52;99598.13;4187820;83;21013;-83
2022/10/29 15:01:19;;;;;;;14.60;5.87;;;;;;;17.46;77.73;99590.15;3962038;86;21166;-85
2022/10/29 15:07:32;;;;;;;12.78;6.83;;;;;;;17.27;78.12;99598.97;4069148;86;21164;-84
2022/10/29 15:14:24;;;;;;;13.22;6.95;;;;;;;17.06;78.55;99611.53;4049450;86;21589;-85
2022/10/29 15:21:01;;;;;;;17.32;7.53;;;;;;;16.85;79.04;99619.33;4091942;85;21603;-86
2022/10/29 15:27:05;;;;;;;;;;;;;;;16.64;79.55;99613.09;4127120;82;21049;-85
2022/10/29 15:33:29;;;;;;;13.70;7.75;;;;;;;16.42;80.15;99616.48;4248861;82;20118;-85
2022/10/29 15:53:28;;;;;;;22.10;9.40;;;;;;;15.92;81.31;99633.52;4082495;85;21054;-85
2022/10/29 15:59:30;;;;;;;21.23;11.25;;;;;;;15.79;81.65;99635.08;4100854;85;21080;-85
2022/10/29 16:12:22;;;;;;;26.55;12.33;;;;;;;15.51;82.67;99647.70;4038877;85;21131;-85
2022/10/29 16:18:24;;;;;;;23.75;12.95;;;;;;;15.39;83.14;99640.38;4097796;85;21030;-84
2022/10/29 16:25:08;;;;;;;;;;;;;;;;;;;;;
2022/10/29 16:44:57;;;;;;;29.75;14.38;;;;;;;14.77;84.97;99625.19;3918245;85;21169;-87
2022/10/29 16:51:04;;;;;;;28.95;16.75;;;;;;;14.62;85.54;99624.33;3991882;88;21218;-85
2022/10/29 16:57:38;;;;;;;25.52;15.18;;;;;;;14.40;85.89;99610.24;4041063;83;20975;-86
2022/10/29 17:04:18;;;;;;;29.18;16.85;;;;;;;14.32;86.78;99616.08;4025545;85;20998;-85
2022/10/29 17:10:20;;;;;;;28.60;16.62;;;;;;;14.31;87.36;99626.91;4214516;83;21080;-86
2022/10/29 17:16:40;;;;;;;29.15;16.80;;;;;;;14.28;88.11;99638.69;4132774;83;21480;-87
2022/10/29 17:36:50;;;;;;;27.35;16.93;;;;;;;13.93;89.42;99635.06;4209319;83;20994;-85
2022/10/29 17:43:20;;;;;;;35.65;17.48;;;;;;;13.87;89.97;99634.64;4111770;84;21547;-86
2022/10/29 17:49:48;;;;;;;27.40;16.85;;;;;;;13.85;90.57;99634.80;4099621;84;21632;-86
2022/10/29 17:55:50;;;;;;;35.48;20.90;;;;;;;13.82;90.84;99645.20;4109376;85;21072;-85
2022/10/29 18:02:20;;;;;;;33.20;20.12;;;;;;;13.66;90.94;99638.58;4107901;85;21036;-85
2022/10/29 18:15:15;;;;;;;35.23;21.42;;;;;;;13.53;92.02;99637.27;4213462;83;21009;-85
2022/10/29 18:21:20;;;;;;;33.45;20.25;;;;;;;13.48;92.60;99639.59;4208863;83;21004;-85
2022/10/29 18:27:45;;;;;;;30.45;20.23;;;;;;;13.42;92.95;99641.11;4207781;83;20997;-86
2022/10/29 18:34:16;;;;;;;29.87;19.17;;;;;;;13.37;93.06;99635.94;4226838;83;21041;-85
2022/10/29 18:40:41;;;;;;;31.02;18.95;;;;;;;13.26;93.28;99635.05;4206576;83;21919;-85
2022/10/29 18:46:54;;;;;;;30.52;18.42;;;;;;;13.06;93.52;99637.77;4213917;81;21388;-85
2022/10/29 18:52:56;;;;;;;35.90;20.75;;;;;;;12.96;93.98;99638.41;4180645;82;21105;-86
2022/10/29 18:59:14;;;;;;;31.65;21.12;;;;;;;12.83;94.11;99630.19;4191260;82;21079;-86
2022/10/29 19:05:24;;;;;;;36.75;20.77;;;;;;;12.73;94.74;99631.66;4159190;82;21595;-85
2022/10/29 19:11:29;;;;;;;33.78;22.27;;;;;;;12.61;94.76;99636.80;4202941;82;21100;-84
2022/10/29 19:17:39;;;;;;;36.13;21.85;;;;;;;12.52;95.19;99633.55;4060918;85;21099;-86
2022/10/29 19:23:50;;;;;;;32.17;20.48;;;;;;;12.50;95.53;99637.81;4063624;85;21008;-85
2022/10/29 19:30:17;;;;;;;37.85;21.95;;;;;;;12.40;95.90;99650.23;4061736;85;21897;-85
2022/10/29 19:37:29;;;;;;;44.63;24.87;;;;;;;12.31;95.87;99655.20;4063450;85;21027;-86
2022/10/29 19:51:05;;;;;;;41.55;25.17;;;;;;;12.13;97.27;99645.94;4073725;84;21096;-86
2022/10/29 20:03:49;;;;;;;43.23;26.37;;;;;;;12.05;98.04;99646.98;4246378;83;21863;-85
2022/10/29 20:10:10;;;;;;;49.77;28.38;;;;;;;12.04;98.27;99644.61;4213451;82;21094;-85
2022/10/29 20:16:20;;;;;;;44.50;27.93;;;;;;;11.93;98.05;99635.42;4211221;82;20988;-85
2022/10/29 20:22:22;;;;;;;41.18;24.20;;;;;;;11.82;98.37;99644.06;4213974;82;21733;-85
2022/10/29 20:28:56;;;;;;;38.73;24.23;;;;;;;11.80;99.40;99642.25;4246417;82;21022;-85
2022/10/29 20:35:36;;;;;;;35.83;22.35;;;;;;;11.85;99.92;99647.44;4190182;83;21101;-85
2022/10/29 20:41:49;;;;;;;41.35;24.05;;;;;;;11.96;100.00;99654.69;4146292;83;21054;-85
2022/10/29 20:48:05;;;;;;;36.42;22.22;;;;;;;12.05;100.00;99658.53;4060472;85;21000;-84
2022/10/29 20:54:06;;;;;;;40.67;23.73;;;;;;;12.08;100.00;99652.30;4184808;83;21688;-85
2022/10/29 21:00:10;;;;;;;42.58;22.70;;;;;;;12.15;100.00;99654.56;4217192;83;21112;-85
2022/10/29 21:06:24;;;;;;;41.83;24.37;;;;;;;12.13;100.00;99655.54;4217699;83;21872;-85
2022/10/29 21:33:02;;;;;;;41.37;24.50;;;;;;;12.24;100.00;99641.39;4064993;83;21152;-85
2022/10/29 21:39:12;;;;;;;39.30;23.95;;;;;;;12.27;100.00;99656.32;4218923;83;21065;-85
2022/10/29 21:45:17;;;;;;;38.17;24.63;;;;;;;12.28;100.00;99653.20;4219321;83;21984;-86
2022/10/29 21:51:27;;;;;;;39.10;24.82;;;;;;;12.20;100.00;99637.79;4225630;83;21493;-85
2022/10/29 21:57:52;;;;;;;39.95;24.90;;;;;;;12.14;100.00;99626.13;4196433;83;21707;-86
2022/10/29 22:04:16;;;;;;;42.93;25.92;;;;;;;12.11;100.00;99617.26;4227960;84;21652;-85
2022/10/29 22:17:51;;;;;;;40.08;27.30;;;;;;;12.12;100.00;99607.28;3869236;91;21086;-85
2022/10/29 22:24:00;;;;;;;34.85;24.37;;;;;;;12.06;100.00;99597.78;4054758;82;21080;-85
2022/10/29 22:30:26;;;;;;;36.80;24.00;;;;;;;12.04;100.00;99581.50;4260374;82;20973;-84
2022/10/29 22:36:27;;;;;;;33.98;22.60;;;;;;;12.04;100.00;99575.41;4268461;82;21080;-85
2022/10/29 22:42:35;;;;;;;34.83;22.95;;;;;;;12.14;100.00;99566.55;4239503;82;21038;-85
2022/10/29 22:48:59;;;;;;;38.45;24.75;;;;;;;12.16;100.00;99564.23;4229079;82;21521;-85
2022/10/29 23:02:38;;;;;;;33.50;22.70;;;;;;;12.06;100.00;99570.92;4208096;81;21477;-85
2022/10/29 23:09:04;;;;;;;38.15;23.35;;;;;;;12.08;100.00;99569.98;4208290;83;21009;-85
2022/10/29 23:15:29;;;;;;;35.40;23.93;;;;;;;12.06;100.00;99562.69;4294754;83;20974;-85
2022/10/29 23:22:02;;;;;;;33.73;21.77;;;;;;;11.82;100.00;99544.73;4198689;82;21069;-85
2022/10/29 23:28:08;;;;;;;30.48;19.48;;;;;;;11.73;100.00;99546.92;4203038;82;21007;-85
2022/10/29 23:34:14;;;;;;;33.97;22.50;;;;;;;11.67;100.00;99559.37;4208271;83;20997;-85
2022/10/29 23:40:24;;;;;;;33.67;21.80;;;;;;;11.63;100.00;99550.31;4076920;85;21572;-85
2022/10/29 23:46:26;;;;;;;39.75;20.35;;;;;;;11.60;100.00;99554.34;4082404;85;21102;-85
2022/10/29 23:52:27;;;;;;;47.75;28.92;;;;;;;11.60;100.00;99572.16;4078489;85;21076;-85
2022/10/29 23:58:38;;;;;;;47.75;29.63;;;;;;;11.44;100.00;99568.19;4043638;85;21084;-85
